Time;durP1;ratioP1;P1;durP2;ratioP2;P2;SDS_P1;SDS_P2;PMS_P1;PMS_P2;Temp;Humidity;BMP_temperature;BMP_pressure;BME280_temperature;BME280_humidity;BME280_pressure;Samples;Min_cycle;Max_cycle;Signal;HPM_P1;HPM_P2
2022/12/05 00:00:13;;;;;;;21.90;13.23;;;;;;;0.94;83.08;101502.06;3376308;82;20987;-73
2022/12/05 00:05:06;;;;;;;16.42;11.78;;;;;;;0.92;82.95;101508.76;3344561;83;21199;-74
2022/12/05 00:09:57;;;;;;;17.48;12.93;;;;;;;0.89;82.94;101500.86;3362224;83;20970;-73
2022/12/05 00:14:48;;;;;;;12.47;9.33;;;;;;;0.88;83.06;101501.66;3382050;83;21077;-74
2022/12/05 00:19:39;;;;;;;16.90;12.05;;;;;;;0.89;82.92;101504.70;3353489;83;20982;-74
2022/12/05 00:24:30;;;;;;;19.12;14.20;;;;;;;0.86;82.97;101504.11;3363506;83;21529;-74
2022/12/05 00:29:21;;;;;;;18.80;12.85;;;;;;;0.89;83.10;101520.06;3347269;83;21612;-73
2022/12/05 00:34:12;;;;;;;19.75;14.15;;;;;;;0.89;83.12;101508.14;3343985;83;22456;-74
2022/12/05 00:39:09;;;;;;;17.62;13.05;;;;;;;0.89;83.12;101511.98;3317157;83;21603;-74
2022/12/05 00:44:01;;;;;;;16.82;12.47;;;;;;;0.91;83.14;101510.44;3377525;83;20979;-73
2022/12/05 00:48:55;;;;;;;17.15;13.15;;;;;;;0.88;82.98;101506.78;3346429;83;21947;-74
2022/12/05 00:53:47;;;;;;;17.77;12.58;;;;;;;0.86;82.99;101508.32;3338982;83;21492;-74
2022/12/05 00:58:39;;;;;;;18.37;13.60;;;;;;;0.85;82.84;101504.00;3338329;83;20994;-74
2022/12/05 01:03:30;;;;;;;19.37;13.98;;;;;;;0.85;82.95;101511.68;3353899;82;21546;-74
2022/12/05 01:08:21;;;;;;;17.55;12.25;;;;;;;0.85;82.89;101511.68;3386469;82;21033;-74
2022/12/05 01:13:12;;;;;;;19.42;12.95;;;;;;;0.85;82.92;101511.68;3361558;82;22407;-74
2022/12/05 01:18:03;;;;;;;19.12;13.70;;;;;;;0.81;82.77;101502.02;3351653;82;22065;-74
2022/12/05 01:22:54;;;;;;;17.62;13.05;;;;;;;0.78;82.74;101497.96;3370363;82;20986;-73
2022/12/05 01:27:45;;;;;;;15.60;12.25;;;;;;;0.69;82.64;101474.78;3360154;82;21101;-74
2022/12/05 01:32:37;;;;;;;16.25;12.45;;;;;;;0.69;82.64;101474.78;3375144;82;21709;-74
2022/12/05 01:37:28;;;;;;;17.52;12.80;;;;;;;0.73;82.85;101480.99;3358338;82;21280;-73
2022/12/05 01:42:19;;;;;;;16.15;12.07;;;;;;;0.72;82.72;101490.75;3337723;82;20962;-74
2022/12/05 01:47:11;;;;;;;16.05;12.45;;;;;;;0.72;82.83;101472.44;3369617;82;20926;-74
2022/12/05 01:52:07;;;;;;;16.10;12.60;;;;;;;0.74;82.76;101466.14;3363787;82;20989;-73
2022/12/05 01:57:02;;;;;;;13.30;11.00;;;;;;;0.72;82.64;101463.87;3405282;82;20989;-74
2022/12/05 02:01:55;;;;;;;14.90;11.20;;;;;;;0.66;82.67;101468.19;3348865;83;21035;-74
2022/12/05 02:06:46;;;;;;;15.85;12.80;;;;;;;0.64;82.73;101462.45;3372343;83;20995;-74
2022/12/05 02:11:46;;;;;;;19.07;12.33;;;;;;;0.64;82.78;101467.16;3373237;83;21005;-74
2022/12/05 02:17:04;;;;;;;14.38;11.88;;;;;;;0.64;82.65;101468.45;3375652;83;21528;-74
2022/12/05 02:22:07;;;;;;;;;;;;;;;0.61;82.47;101456.74;3319003;83;21019;-74
2022/12/05 02:27:37;;;;;;;15.08;11.03;;;;;;;0.59;82.67;101451.00;3387369;83;21345;-73
2022/12/05 02:32:59;;;;;;;17.15;11.85;;;;;;;0.54;82.59;101449.02;3379934;83;21034;-74
2022/12/05 02:38:05;;;;;;;13.70;9.83;;;;;;;0.54;82.70;101449.42;3343043;83;21022;-74
2022/12/05 02:43:19;;;;;;;13.93;11.22;;;;;;;0.56;82.74;101449.14;3366265;83;20954;-74
2022/12/05 02:48:12;;;;;;;14.58;10.82;;;;;;;0.55;82.71;101441.86;3365752;83;20982;-74
2022/12/05 02:53:11;;;;;;;13.72;11.55;;;;;;;0.56;82.73;101442.73;3369667;83;22023;-74
2022/12/05 02:58:07;;;;;;;14.00;10.55;;;;;;;0.60;82.82;101443.44;3341530;83;21473;-74
2022/12/05 03:02:59;;;;;;;12.60;10.67;;;;;;;0.61;82.74;101440.47;3397450;82;20993;-74
2022/12/05 03:07:54;;;;;;;14.78;11.53;;;;;;;0.59;82.57;101422.85;3364321;82;21441;-74
2022/12/05 03:12:54;;;;;;;17.12;12.25;;;;;;;0.57;82.67;101413.78;3377681;81;20988;-74
2022/12/05 03:17:53;;;;;;;14.63;12.35;;;;;;;0.59;82.64;101410.97;3394677;82;22116;-74
2022/12/05 03:38:53;;;;;;;12.28;10.88;;;;;;;1.08;81.26;101386.08;3576852;78;22626;-71
2022/12/05 03:44:07;;;;;;;12.25;10.95;;;;;;;0.88;81.46;101382.61;3545818;79;21161;-71
2022/12/05 03:49:10;;;;;;;12.13;10.70;;;;;;;0.74;81.74;101388.07;3524434;79;20971;-71
2022/12/05 03:54:09;;;;;;;13.53;10.53;;;;;;;0.63;81.90;101402.70;3519857;79;20934;-72
2022/12/05 03:59:30;;;;;;;13.62;10.28;;;;;;;0.60;82.00;101413.13;3511353;79;20967;-72
2022/12/05 04:04:36;;;;;;;11.55;10.00;;;;;;;0.57;82.20;101432.98;3513997;79;20998;-72
2022/12/05 04:09:53;;;;;;;12.30;9.45;;;;;;;0.58;82.25;101436.05;3570002;79;21980;-73
2022/12/05 04:14:49;;;;;;;13.58;11.38;;;;;;;0.56;82.19;101440.18;3510646;79;21456;-72
2022/12/05 04:30:23;;;;;;;12.10;10.03;;;;;;;0.49;82.23;101411.11;3531639;79;20908;-72
2022/12/05 04:35:20;;;;;;;13.88;10.45;;;;;;;0.51;82.34;101400.59;3557312;79;21085;-72
2022/12/05 04:40:53;;;;;;;16.20;10.80;;;;;;;0.51;82.31;101391.63;3584156;79;20970;-72
2022/12/05 04:45:46;;;;;;;12.13;9.48;;;;;;;0.51;82.25;101391.63;3537876;79;20990;-72
2022/12/05 04:50:39;;;;;;;12.80;9.08;;;;;;;0.50;82.15;101395.87;3534448;79;21236;-73
2022/12/05 04:55:32;;;;;;;12.15;9.30;;;;;;;0.48;82.02;101411.48;3459141;79;22016;-72
2022/12/05 05:00:24;;;;;;;12.68;9.68;;;;;;;0.46;82.02;101400.66;3453101;79;21802;-72
2022/12/05 05:05:18;;;;;;;11.93;9.70;;;;;;;0.44;82.02;101389.44;3525775;79;20927;-72
2022/12/05 05:10:15;;;;;;;12.05;9.40;;;;;;;0.46;81.99;101384.03;3492094;80;20938;-72
2022/12/05 05:15:07;;;;;;;13.90;9.83;;;;;;;0.48;82.12;101379.90;3562086;79;20943;-72
2022/12/05 05:20:22;;;;;;;12.37;9.95;;;;;;;0.48;82.07;101381.17;3518822;79;21519;-72
2022/12/05 05:24:51;;;;;;;11.75;9.03;;;;;;;0.50;82.11;101388.56;3495416;80;21306;-72
2022/12/05 05:29:42;;;;;;;13.40;9.70;;;;;;;0.50;82.04;101396.23;3568631;78;20956;-72
2022/12/05 05:34:33;;;;;;;14.07;10.05;;;;;;;0.50;81.84;101397.52;3505276;80;20939;-72
2022/12/05 05:39:26;;;;;;;13.28;10.20;;;;;;;0.51;81.94;101404.02;3574245;79;20911;-72
2022/12/05 05:44:17;;;;;;;11.88;9.85;;;;;;;0.49;81.86;101407.28;3513774;79;20943;-71
2022/12/05 05:49:09;;;;;;;12.40;9.95;;;;;;;0.50;82.03;101413.78;3574934;79;20928;-72
2022/12/05 05:54:00;;;;;;;12.95;10.43;;;;;;;0.51;81.91;101417.22;3514642;79;21002;-72
2022/12/05 05:58:59;;;;;;;12.80;10.38;;;;;;;0.51;81.98;101417.22;3566038;79;20990;-72
2022/12/05 06:03:51;;;;;;;13.43;10.23;;;;;;;0.52;81.97;101418.98;3562609;79;21055;-73
2022/12/05 06:08:43;;;;;;;12.00;9.13;;;;;;;0.53;81.77;101425.88;3523775;79;20994;-72
2022/12/05 06:13:34;;;;;;;13.72;9.88;;;;;;;0.52;81.86;101412.58;3577772;79;21077;-72
2022/12/05 06:18:25;;;;;;;12.47;10.35;;;;;;;0.53;81.97;101415.25;3524169;80;21531;-72
2022/12/05 06:23:16;;;;;;;13.88;11.78;;;;;;;0.54;81.96;101416.16;3514661;80;21480;-72
2022/12/05 06:28:07;;;;;;;14.65;11.12;;;;;;;0.55;82.04;101414.98;3511696;80;21018;-72
2022/12/05 06:32:59;;;;;;;13.43;10.05;;;;;;;0.59;82.07;101417.37;3499345;79;21237;-72
2022/12/05 06:37:50;;;;;;;14.00;11.25;;;;;;;0.58;81.96;101413.02;3499200;79;21901;-72
2022/12/05 06:42:40;;;;;;;14.03;10.82;;;;;;;0.60;81.97;101415.28;3499319;79;20896;-73
2022/12/05 06:47:32;;;;;;;12.70;10.58;;;;;;;0.58;81.91;101398.94;3537033;79;21070;-72
2022/12/05 06:52:22;;;;;;;14.33;11.28;;;;;;;0.59;81.98;101395.61;3467579;79;20971;-73
2022/12/05 06:57:14;;;;;;;14.10;11.22;;;;;;;0.62;82.09;101400.91;3496801;80;20911;-73
2022/12/05 07:02:08;;;;;;;17.15;12.55;;;;;;;0.65;82.15;101411.38;3476254;79;21452;-72
2022/12/05 07:07:03;;;;;;;15.35;10.78;;;;;;;0.70;82.03;101410.02;3502131;79;21030;-72
2022/12/05 07:11:54;;;;;;;16.85;11.80;;;;;;;0.72;81.92;101407.16;3505766;79;21574;-73
2022/12/05 07:16:45;;;;;;;15.03;11.40;;;;;;;0.72;81.75;101403.33;3513096;79;21775;-72
2022/12/05 07:21:36;;;;;;;14.73;11.53;;;;;;;0.75;81.99;101413.78;3535027;79;20963;-72
2022/12/05 07:26:27;;;;;;;16.95;12.60;;;;;;;0.75;81.85;101406.10;3506119;79;21504;-72
2022/12/05 07:31:21;;;;;;;16.25;12.15;;;;;;;0.78;81.87;101399.41;3501398;79;20974;-72
2022/12/05 07:36:17;;;;;;;14.87;11.63;;;;;;;0.79;81.80;101398.60;3494916;79;20964;-73
2022/12/05 07:41:25;;;;;;;16.90;12.43;;;;;;;0.81;81.74;101402.18;3532033;80;20955;-72
2022/12/05 07:46:16;;;;;;;15.15;11.43;;;;;;;0.84;81.75;101399.80;3520536;79;21520;-72
2022/12/05 07:51:09;;;;;;;13.38;10.55;;;;;;;0.85;81.69;101396.47;3507604;79;21572;-72
2022/12/05 07:56:05;;;;;;;14.15;11.03;;;;;;;0.85;81.80;101398.63;3556825;79;20950;-72
2022/12/05 08:00:57;;;;;;;15.63;11.50;;;;;;;0.88;81.70;101401.81;3539393;79;20904;-72
2022/12/05 08:05:49;;;;;;;17.17;13.13;;;;;;;0.88;81.71;101387.32;3505588;79;21051;-72
2022/12/05 08:10:40;;;;;;;15.58;10.98;;;;;;;0.91;81.72;101384.06;3499084;79;21046;-72
2022/12/05 08:15:36;;;;;;;17.17;12.45;;;;;;;0.96;81.54;101381.42;3479480;79;21781;-72
2022/12/05 08:20:27;;;;;;;15.53;13.13;;;;;;;0.96;81.50;101383.98;3519503;79;21355;-72
2022/12/05 08:25:18;;;;;;;15.20;10.95;;;;;;;0.98;81.54;101378.56;3574440;79;20916;-72
2022/12/05 08:30:09;;;;;;;16.48;11.80;;;;;;;1.00;81.46;101372.27;3578134;79;20987;-72
2022/12/05 08:35:00;;;;;;;18.35;12.90;;;;;;;0.99;81.37;101377.79;3578548;79;21021;-72
2022/12/05 08:39:51;;;;;;;16.50;12.53;;;;;;;1.01;81.40;101380.05;3526502;79;21193;-72
2022/12/05 08:44:42;;;;;;;16.25;12.60;;;;;;;1.02;81.49;101378.00;3538874;79;20923;-72
2022/12/05 08:49:33;;;;;;;17.20;12.33;;;;;;;1.08;81.54;101382.23;3491397;79;21720;-72
2022/12/05 08:54:25;;;;;;;19.60;12.07;;;;;;;1.13;81.43;101383.42;3517714;79;20927;-73
2022/12/05 08:59:16;;;;;;;17.37;12.73;;;;;;;1.14;81.42;101389.06;3513051;79;21021;-73
2022/12/05 09:04:07;;;;;;;19.23;13.78;;;;;;;1.20;81.22;101379.97;3531264;79;20888;-73
2022/12/05 09:09:03;;;;;;;16.48;11.95;;;;;;;1.25;81.35;101384.64;3492501;79;20948;-73
2022/12/05 09:13:58;;;;;;;16.75;13.28;;;;;;;1.29;80.95;101376.75;3491979;80;20931;-73
2022/12/05 09:18:50;;;;;;;17.75;13.75;;;;;;;1.29;80.98;101372.91;3533757;79;20951;-73
2022/12/05 09:23:42;;;;;;;20.68;13.93;;;;;;;1.28;81.10;101364.31;3523088;79;20928;-73
2022/12/05 09:28:34;;;;;;;20.17;13.80;;;;;;;1.30;81.16;101355.05;3513468;79;21875;-73
2022/12/05 09:33:25;;;;;;;19.85;14.28;;;;;;;1.33;81.13;101359.50;3511902;80;20920;-73
2022/12/05 09:38:16;;;;;;;19.25;12.85;;;;;;;1.31;81.15;101350.83;3545969;79;20990;-73
2022/12/05 09:43:18;;;;;;;17.05;13.30;;;;;;;1.31;81.05;101345.71;3534040;79;21409;-73
2022/12/05 09:48:19;;;;;;;20.97;15.28;;;;;;;1.27;80.94;101334.38;3504555;79;20959;-72
2022/12/05 09:53:33;;;;;;;15.75;10.25;;;;;;;1.26;80.94;101321.47;3552458;79;21096;-71
2022/12/05 09:58:39;;;;;;;23.12;14.75;;;;;;;1.29;81.00;101314.86;3498630;79;20963;-73
2022/12/05 10:03:38;;;;;;;18.42;13.55;;;;;;;1.36;80.93;101313.59;3529385;79;21130;-73
2022/12/05 10:08:54;;;;;;;18.87;14.50;;;;;;;1.49;80.90;101303.30;3557099;79;20940;-73
2022/12/05 10:13:59;;;;;;;19.70;12.75;;;;;;;1.67;80.85;101302.69;3329210;83;21016;-72
2022/12/05 10:19:02;;;;;;;17.92;13.48;;;;;;;1.76;80.60;101299.81;3347855;83;22016;-72
2022/12/05 10:24:07;;;;;;;22.30;14.40;;;;;;;1.73;80.47;101287.67;3328175;84;21015;-73
2022/12/05 10:29:03;;;;;;;19.50;14.43;;;;;;;1.66;80.33;101291.56;3298012;84;21034;-73
2022/12/05 10:34:12;;;;;;;20.13;14.47;;;;;;;1.65;80.55;101292.74;3351569;84;20982;-74
2022/12/05 10:39:03;;;;;;;20.32;13.78;;;;;;;1.65;80.48;101289.77;3343870;84;21050;-72
2022/12/05 10:43:58;;;;;;;19.98;13.68;;;;;;;1.60;80.48;101289.88;3326970;84;22259;-72
2022/12/05 10:48:49;;;;;;;19.25;14.00;;;;;;;1.59;80.60;101291.06;3335104;81;20990;-72
2022/12/05 10:53:51;;;;;;;25.08;15.35;;;;;;;1.56;80.71;101278.05;3528076;79;21022;-73
2022/12/05 10:58:55;;;;;;;20.68;13.62;;;;;;;1.55;80.69;101266.05;3533411;79;21037;-74
2022/12/05 11:03:52;;;;;;;17.35;13.08;;;;;;;1.58;80.89;101271.37;3523151;80;20993;-74
2022/12/05 11:08:53;;;;;;;23.43;15.47;;;;;;;1.59;80.79;101262.87;3473304;81;21248;-73
2022/12/05 11:14:02;;;;;;;22.90;14.73;;;;;;;1.56;80.88;101260.10;3456400;80;21080;-74
2022/12/05 11:18:53;;;;;;;19.32;14.00;;;;;;;1.56;81.12;101262.67;3501646;79;20929;-73
2022/12/05 11:23:45;;;;;;;20.43;14.23;;;;;;;1.51;81.00;101259.44;3451520;80;20955;-72
2022/12/05 11:28:36;;;;;;;20.50;12.73;;;;;;;1.52;81.02;101243.66;3425407;79;20932;-73
2022/12/05 11:33:31;;;;;;;20.77;14.00;;;;;;;1.54;81.00;101240.81;3518966;79;21190;-74
2022/12/05 11:38:27;;;;;;;21.82;14.70;;;;;;;1.59;80.86;101234.67;3451285;79;20974;-74
2022/12/05 11:43:27;;;;;;;21.12;13.68;;;;;;;1.61;80.99;101221.55;3552420;80;20970;-73
2022/12/05 11:48:44;;;;;;;22.37;15.65;;;;;;;1.64;80.98;101221.75;3518429;80;20986;-73
2022/12/05 11:53:43;;;;;;;25.57;15.47;;;;;;;1.65;80.98;101224.81;3487110;80;21010;-73
2022/12/05 11:59:01;;;;;;;21.10;14.95;;;;;;;1.64;80.82;101208.93;3522077;80;21090;-74
2022/12/05 12:04:37;;;;;;;20.15;14.50;;;;;;;1.69;80.91;101202.41;3539830;80;20915;-73
2022/12/05 12:09:56;;;;;;;24.60;16.07;;;;;;;1.71;80.89;101199.53;3501385;79;20946;-74
2022/12/05 12:15:33;;;;;;;20.12;14.00;;;;;;;1.72;80.85;101203.88;3509294;79;21105;-72
2022/12/05 12:20:44;;;;;;;23.57;14.85;;;;;;;1.67;80.87;101203.59;3563301;79;20994;-73
2022/12/05 12:26:13;;;;;;;24.23;15.80;;;;;;;1.65;80.98;101204.31;3539450;79;21443;-75
2022/12/05 12:31:31;;;;;;;23.12;15.30;;;;;;;1.65;80.95;101201.74;3535759;80;21315;-73
2022/12/05 12:36:27;;;;;;;;;;;;;;;1.64;81.00;101197.39;3420486;82;20954;-72
2022/12/05 12:41:45;;;;;;;23.27;15.13;;;;;;;1.61;81.11;101194.64;3431850;82;20151;-73
2022/12/05 12:46:56;;;;;;;22.50;15.18;;;;;;;1.63;81.25;101193.08;3398202;82;21560;-73
2022/12/05 12:51:53;;;;;;;20.40;14.35;;;;;;;1.64;81.11;101185.86;3448687;82;21394;-72
2022/12/05 12:57:04;;;;;;;21.48;15.68;;;;;;;1.66;81.11;101178.77;3407767;82;21013;-73
2022/12/05 13:02:28;;;;;;;23.00;15.25;;;;;;;1.69;81.07;101181.90;3420701;82;21048;-72
2022/12/05 13:07:28;;;;;;;26.57;18.82;;;;;;;1.74;81.10;101179.22;3388363;84;20992;-72
2022/12/05 13:12:29;;;;;;;21.93;16.12;;;;;;;1.78;81.06;101183.73;3413920;81;21001;-73
2022/12/05 13:17:23;;;;;;;26.02;16.87;;;;;;;1.78;80.94;101176.03;3437868;81;21698;-73
2022/12/05 13:22:17;;;;;;;24.55;15.88;;;;;;;1.79;80.93;101177.82;3523118;81;21006;-73
2022/12/05 13:27:15;;;;;;;22.05;16.45;;;;;;;1.81;81.01;101177.51;3486679;81;20966;-73
2022/12/05 13:32:32;;;;;;;22.80;16.10;;;;;;;1.83;81.04;101174.64;3468632;82;20993;-73
2022/12/05 13:42:41;;;;;;;29.42;19.35;;;;;;;1.80;80.93;101169.31;3462116;80;21006;-73
2022/12/05 13:48:01;;;;;;;28.85;20.40;;;;;;;1.76;80.90;101162.24;3419047;80;21035;-73
2022/12/05 13:52:57;;;;;;;28.60;17.55;;;;;;;1.74;80.86;101156.55;3445112;80;21093;-73
2022/12/05 13:57:53;;;;;;;26.97;18.27;;;;;;;1.70;80.86;101145.23;3457194;81;20928;-73
2022/12/05 14:02:50;;;;;;;23.92;16.57;;;;;;;1.69;80.95;101144.73;3434728;80;20888;-73
2022/12/05 14:07:53;;;;;;;26.60;18.40;;;;;;;1.68;81.07;101150.64;3402378;80;21645;-73
2022/12/05 14:12:55;;;;;;;23.92;16.48;;;;;;;1.66;81.01;101144.53;3490467;80;21042;-73
2022/12/05 14:17:46;;;;;;;23.32;16.42;;;;;;;1.64;81.06;101153.81;3437213;80;20927;-73
2022/12/05 14:22:52;;;;;;;27.05;17.35;;;;;;;1.61;81.17;101151.97;3376588;81;21022;-73
2022/12/05 14:27:51;;;;;;;24.67;16.75;;;;;;;1.60;81.18;101149.31;3329419;85;21007;-73
2022/12/05 14:32:43;;;;;;;25.08;16.30;;;;;;;1.58;81.26;101138.09;3309721;84;20975;-73
2022/12/05 14:37:41;;;;;;;22.98;16.62;;;;;;;1.58;81.33;101133.84;3300372;85;21032;-74
2022/12/05 14:42:52;;;;;;;23.75;18.52;;;;;;;1.57;81.43;101135.02;3228112;86;21024;-73
2022/12/05 14:47:54;;;;;;;21.37;16.52;;;;;;;1.56;81.34;101126.83;3271654;86;21036;-73
2022/12/05 14:53:08;;;;;;;28.32;16.85;;;;;;;1.53;81.43;101111.77;3224352;87;20977;-75
2022/12/05 14:58:01;;;;;;;28.20;17.92;;;;;;;1.51;81.45;101111.20;3252197;86;21159;-73
2022/12/05 15:02:54;;;;;;;25.82;16.35;;;;;;;1.50;81.54;101097.51;3307850;81;21011;-73
2022/12/05 15:07:46;;;;;;;25.27;16.35;;;;;;;1.48;81.54;101093.94;3491388;81;20988;-73
2022/12/05 15:12:49;;;;;;;23.30;16.45;;;;;;;1.48;81.55;101091.78;3436768;81;20960;-72
2022/12/05 15:17:51;;;;;;;25.17;16.67;;;;;;;1.47;81.63;101084.50;3435616;81;20949;-73
2022/12/05 15:22:42;;;;;;;25.05;17.23;;;;;;;1.48;81.64;101078.56;3430663;81;21409;-73
2022/12/05 15:27:33;;;;;;;22.37;16.50;;;;;;;1.46;81.65;101082.72;3455318;81;20960;-72
2022/12/05 15:32:27;;;;;;;26.52;16.93;;;;;;;1.48;81.78;101086.66;3480480;81;21552;-72
2022/12/05 15:37:22;;;;;;;26.95;18.37;;;;;;;1.47;81.79;101092.19;3501108;81;21564;-73
2022/12/05 15:42:15;;;;;;;28.62;18.82;;;;;;;1.46;81.74;101078.88;3522998;80;20915;-74
2022/12/05 15:47:22;;;;;;;26.02;17.45;;;;;;;1.48;81.92;101083.69;3515465;79;21465;-74
2022/12/05 15:52:31;;;;;;;27.35;17.45;;;;;;;1.44;81.86;101079.19;3539070;79;20984;-73
2022/12/05 15:57:27;;;;;;;29.95;18.95;;;;;;;1.44;82.00;101076.63;3502788;80;20939;-73
2022/12/05 16:02:24;;;;;;;30.07;19.53;;;;;;;1.46;82.06;101063.91;3539586;79;21010;-72
2022/12/05 16:07:15;;;;;;;39.80;22.15;;;;;;;1.48;82.09;101065.75;3549628;80;20955;-75
2022/12/05 16:12:18;;;;;;;25.50;17.12;;;;;;;1.49;82.13;101066.25;3483981;80;21473;-74
2022/12/05 16:17:13;;;;;;;29.67;19.37;;;;;;;1.52;82.15;101064.25;3537324;80;21580;-74
2022/12/05 16:22:15;;;;;;;27.65;19.15;;;;;;;1.52;82.20;101061.31;3507193;80;21029;-73
2022/12/05 16:27:18;;;;;;;26.70;18.23;;;;;;;1.53;82.22;101061.78;3544991;80;20959;-73
2022/12/05 16:32:24;;;;;;;27.85;19.70;;;;;;;1.53;82.12;101056.66;3498207;79;20923;-73
2022/12/05 16:37:28;;;;;;;25.23;17.85;;;;;;;1.53;82.19;101052.81;3516034;80;20967;-73
2022/12/05 16:42:25;;;;;;;26.60;17.57;;;;;;;1.55;82.20;101053.32;3530753;80;21460;-74
2022/12/05 16:47:22;;;;;;;;;;;;;;;1.55;82.21;101046.91;3480308;79;21006;-73
2022/12/05 16:52:15;;;;;;;28.05;17.25;;;;;;;1.55;82.22;101045.62;3495153;79;20176;-74
2022/12/05 16:57:11;;;;;;;25.43;18.75;;;;;;;1.55;82.23;101032.41;3442272;79;21436;-73
2022/12/05 17:02:06;;;;;;;25.10;18.02;;;;;;;1.56;82.21;101032.91;3510742;80;21137;-73
2022/12/05 17:06:58;;;;;;;24.95;18.12;;;;;;;1.56;82.22;101034.56;3514157;79;21022;-74
2022/12/05 17:11:53;;;;;;;26.37;17.57;;;;;;;1.59;82.20;101035.66;3519599;80;21010;-74
2022/12/05 17:16:44;;;;;;;26.05;16.20;;;;;;;1.60;82.14;101027.56;3521759;79;20971;-74
2022/12/05 17:21:36;;;;;;;25.00;16.67;;;;;;;1.62;82.12;101024.69;3520451;79;20970;-74
2022/12/05 17:26:27;;;;;;;26.97;18.50;;;;;;;1.63;82.08;101021.34;3494757;79;21737;-73
2022/12/05 17:31:21;;;;;;;27.55;18.73;;;;;;;1.61;81.98;101027.66;3542987;80;20974;-74
2022/12/05 17:36:14;;;;;;;25.23;17.52;;;;;;;1.61;82.01;101012.66;3499351;80;21010;-72
2022/12/05 17:41:05;;;;;;;21.23;16.82;;;;;;;1.64;82.06;101021.81;3467272;79;21065;-74
2022/12/05 17:45:59;;;;;;;24.90;18.82;;;;;;;1.65;81.99;101021.03;3490691;79;20958;-73
2022/12/05 17:50:50;;;;;;;28.12;17.73;;;;;;;1.66;82.08;101018.56;3467538;79;20958;-73
2022/12/05 17:55:42;;;;;;;31.42;19.50;;;;;;;1.69;82.02;101019.12;3483193;80;20959;-73
2022/12/05 18:00:33;;;;;;;28.45;17.80;;;;;;;1.67;81.89;101010.46;3479939;81;21010;-74
2022/12/05 18:05:24;;;;;;;28.47;19.55;;;;;;;1.69;82.02;101006.30;3553144;79;21401;-73
2022/12/05 18:10:19;;;;;;;24.35;18.10;;;;;;;1.71;82.05;101005.98;3460128;79;21583;-73
2022/12/05 18:15:12;;;;;;;30.00;20.27;;;;;;;1.72;82.01;101006.48;3471845;79;22117;-72
2022/12/05 18:20:06;;;;;;;25.32;19.42;;;;;;;1.74;81.99;101016.42;3435702;79;20996;-72
2022/12/05 18:24:57;;;;;;;27.77;18.07;;;;;;;1.73;81.90;101021.05;3407588;79;21475;-71
2022/12/05 18:29:49;;;;;;;29.65;19.12;;;;;;;1.75;81.75;101022.02;3450962;79;21001;-72
2022/12/05 18:34:40;;;;;;;26.97;19.25;;;;;;;1.74;81.88;101024.11;3429202;79;21626;-71
2022/12/05 18:39:31;;;;;;;23.50;18.45;;;;;;;1.70;81.67;101009.36;3440265;79;21696;-72
2022/12/05 18:45:04;;;;;;;29.20;19.23;;;;;;;1.70;81.67;101009.36;3446195;81;21366;-72
2022/12/05 18:49:55;;;;;;;34.45;20.27;;;;;;;1.74;81.85;101008.73;3335836;84;21001;-72
2022/12/05 18:54:46;;;;;;;25.25;17.55;;;;;;;1.75;81.94;101005.77;3291959;84;21705;-72
2022/12/05 18:59:37;;;;;;;28.65;20.10;;;;;;;1.77;81.94;101006.36;3344363;82;22394;-72
2022/12/05 19:04:29;;;;;;;30.02;20.20;;;;;;;1.78;81.96;101006.82;3332465;83;21141;-72
2022/12/05 19:09:24;;;;;;;31.42;21.17;;;;;;;1.79;81.98;101007.32;3291762;84;21513;-72
2022/12/05 19:14:18;;;;;;;27.30;20.30;;;;;;;1.80;81.94;101009.48;3312406;84;21045;-72
2022/12/05 19:19:12;;;;;;;27.67;18.45;;;;;;;1.79;81.82;101008.60;3281830;84;21040;-72
2022/12/05 19:24:06;;;;;;;29.87;20.57;;;;;;;1.81;81.85;101014.70;3295015;84;21675;-72
2022/12/05 19:28:58;;;;;;;24.30;19.27;;;;;;;1.82;81.85;101013.88;3289299;84;21150;-72
2022/12/05 19:33:54;;;;;;;25.35;18.02;;;;;;;1.81;81.94;101012.54;3335013;84;21076;-72
2022/12/05 19:38:47;;;;;;;23.75;18.10;;;;;;;1.82;81.95;101013.01;3321859;84;21089;-72
2022/12/05 19:43:38;;;;;;;25.82;18.85;;;;;;;1.82;81.95;101016.44;3386180;81;21496;-72
2022/12/05 19:48:30;;;;;;;28.87;21.05;;;;;;;1.84;81.88;101014.88;3450690;79;21053;-73
2022/12/05 19:53:22;;;;;;;30.30;20.40;;;;;;;1.83;81.89;101011.81;3511795;78;21957;-72
2022/12/05 19:58:13;;;;;;;27.52;19.85;;;;;;;1.84;81.91;101008.47;3475658;78;20974;-72
2022/12/05 20:03:04;;;;;;;31.93;21.87;;;;;;;1.85;81.98;101005.50;3498131;80;21609;-72
2022/12/05 20:07:55;;;;;;;31.73;22.75;;;;;;;1.83;81.91;100996.43;3462615;80;20959;-72
2022/12/05 20:12:46;;;;;;;34.78;23.92;;;;;;;1.83;81.87;100990.43;3469990;78;20923;-72
2022/12/05 20:17:37;;;;;;;33.88;22.55;;;;;;;1.82;81.84;100983.11;3446617;78;21734;-72
2022/12/05 20:22:29;;;;;;;37.80;24.12;;;;;;;1.84;82.01;100985.39;3496530;79;21041;-72
2022/12/05 20:27:21;;;;;;;31.37;22.75;;;;;;;1.87;81.86;100987.23;3532183;78;20939;-72
2022/12/05 20:32:12;;;;;;;31.93;22.02;;;;;;;1.85;82.03;100978.17;3460118;78;20918;-72
2022/12/05 20:37:02;;;;;;;33.10;22.75;;;;;;;1.87;82.00;100964.16;3478535;80;20946;-72
2022/12/05 20:41:54;;;;;;;33.65;22.35;;;;;;;1.88;81.97;100965.53;3484897;78;20999;-72
2022/12/05 20:46:45;;;;;;;36.80;25.23;;;;;;;1.88;81.90;100960.40;3491603;80;21467;-72
2022/12/05 20:51:41;;;;;;;30.95;23.32;;;;;;;1.88;81.99;100969.37;3452454;78;21433;-72
2022/12/05 20:56:34;;;;;;;29.85;20.80;;;;;;;1.88;81.90;100970.66;3510696;80;20991;-73
2022/12/05 21:01:27;;;;;;;33.23;22.40;;;;;;;1.87;81.87;100965.44;3487429;80;20988;-73
2022/12/05 21:06:26;;;;;;;30.72;21.10;;;;;;;1.87;82.01;100962.47;3512534;80;21429;-72
2022/12/05 21:11:17;;;;;;;32.30;21.15;;;;;;;1.90;81.88;100966.49;3503066;78;20986;-72
2022/12/05 21:16:15;;;;;;;29.98;21.05;;;;;;;1.89;81.95;100955.73;3504017;80;21941;-72
2022/12/05 21:21:12;;;;;;;29.30;19.67;;;;;;;1.87;81.81;100950.92;3445453;78;28905;-73
2022/12/05 21:26:07;;;;;;;32.03;22.45;;;;;;;1.88;81.84;100959.52;3483429;80;21504;-72
2022/12/05 21:31:11;;;;;;;31.02;20.23;;;;;;;1.87;81.86;100953.90;3509470;78;21266;-72
2022/12/05 21:36:04;;;;;;;27.37;19.10;;;;;;;1.90;81.97;100948.95;3519240;80;21077;-72
2022/12/05 21:40:56;;;;;;;30.82;20.23;;;;;;;1.89;81.89;100943.33;3451155;78;20962;-72
2022/12/05 21:45:52;;;;;;;30.90;20.97;;;;;;;1.90;82.00;100943.41;3498079;78;20990;-72
2022/12/05 21:50:43;;;;;;;26.17;20.07;;;;;;;1.93;82.07;100944.38;3483774;80;21703;-72
2022/12/05 21:55:34;;;;;;;24.82;17.62;;;;;;;1.94;82.02;100935.90;3496320;79;21094;-72
2022/12/05 22:00:25;;;;;;;27.17;17.12;;;;;;;1.94;81.97;100936.77;3553427;78;20997;-72
2022/12/05 22:05:16;;;;;;;29.45;19.85;;;;;;;1.95;82.06;100936.36;3455829;78;20971;-71
2022/12/05 22:10:07;;;;;;;32.23;20.75;;;;;;;1.93;81.95;100927.70;3533963;78;21017;-72
2022/12/05 22:14:59;;;;;;;24.92;18.27;;;;;;;1.94;82.04;100924.36;3452901;78;20985;-72
2022/12/05 22:19:50;;;;;;;32.88;20.80;;;;;;;1.92;81.83;100920.83;3531148;80;21198;-72
2022/12/05 22:24:41;;;;;;;30.65;21.75;;;;;;;1.92;82.01;100928.12;3531695;80;21323;-72
2022/12/05 22:29:32;;;;;;;30.50;20.70;;;;;;;1.93;82.06;100917.45;3515626;78;21622;-72
2022/12/05 22:34:23;;;;;;;26.85;19.90;;;;;;;1.95;82.00;100912.00;3569949;79;21792;-72
2022/12/05 22:39:13;;;;;;;32.53;20.88;;;;;;;1.95;82.00;100912.00;3537184;79;20939;-72
2022/12/05 22:44:04;;;;;;;33.48;21.37;;;;;;;1.96;82.00;100899.67;3512633;79;21042;-72
2022/12/05 22:48:56;;;;;;;31.37;21.02;;;;;;;1.96;81.88;100900.96;3542680;78;21041;-72
2022/12/05 22:53:51;;;;;;;28.38;20.43;;;;;;;1.95;82.10;100882.13;3505214;80;21053;-72
2022/12/05 22:58:44;;;;;;;31.65;22.25;;;;;;;1.95;82.04;100869.31;3501704;79;21291;-73
2022/12/05 23:03:35;;;;;;;26.25;18.48;;;;;;;1.96;82.11;100885.57;3499630;78;20998;-72
2022/12/05 23:08:26;;;;;;;31.45;22.60;;;;;;;1.97;82.08;100884.75;3406906;78;21441;-72
2022/12/05 23:13:18;;;;;;;27.00;17.90;;;;;;;1.94;81.99;100873.07;3491967;79;20978;-72
2022/12/05 23:18:09;;;;;;;32.13;21.68;;;;;;;1.96;82.12;100871.47;3482861;78;20955;-73